createdAt,value
2022-08-26T00:05:18.997Z,51.3
2022-08-26T00:11:15.112Z,50.6
2022-08-26T00:17:14.556Z,50.5
2022-08-26T00:23:14.782Z,50.3
2022-08-26T00:29:15.899Z,50.9
2022-08-26T00:35:15.448Z,51.3
2022-08-26T00:41:15.024Z,51.8
2022-08-26T00:47:14.590Z,52.3
2022-08-26T00:53:14.349Z,53
2022-08-26T00:59:14.952Z,53.6
2022-08-26T01:05:17.521Z,54.2
2022-08-26T01:11:15.421Z,55.2
2022-08-26T01:17:14.752Z,55.2
2022-08-26T01:23:14.422Z,56.7
2022-08-26T01:29:15.113Z,59.7
2022-08-26T01:35:16.095Z,60.8
2022-08-26T01:41:16.253Z,64.3
2022-08-26T01:47:14.490Z,64.4
2022-08-26T01:53:14.448Z,66.1
2022-08-26T01:59:15.268Z,66.9
2022-08-26T02:05:15.375Z,67.5
2022-08-26T02:11:15.316Z,68.9
2022-08-26T02:17:15.667Z,69.5
2022-08-26T02:23:14.429Z,69.9
2022-08-26T02:29:14.654Z,70.2
2022-08-26T02:35:20.034Z,70.5
2022-08-26T02:41:15.242Z,70.4
2022-08-26T02:47:15.360Z,71.3
2022-08-26T02:53:14.555Z,71.5
2022-08-26T02:59:15.719Z,71.8
2022-08-26T03:05:14.617Z,71.9
2022-08-26T03:11:15.145Z,71.7
2022-08-26T03:17:15.320Z,72.1
2022-08-26T03:23:14.509Z,72.4
2022-08-26T03:29:14.567Z,72.7
2022-08-26T03:35:15.145Z,73.2
2022-08-26T03:41:15.452Z,72.9
2022-08-26T03:47:14.796Z,73.4
2022-08-26T03:53:14.626Z,73.5
2022-08-26T03:59:16.048Z,73.6
2022-08-26T04:05:16.055Z,73.5
2022-08-26T04:11:15.823Z,72.8
2022-08-26T04:17:14.579Z,73.2
2022-08-26T04:23:14.915Z,72.8
2022-08-26T04:29:14.417Z,72.8
2022-08-26T04:35:14.903Z,73.7
2022-08-26T04:41:16.911Z,73.8
2022-08-26T04:47:14.929Z,73.2
2022-08-26T04:53:14.665Z,73.1
2022-08-26T04:59:17.036Z,72.8
2022-08-26T05:05:15.636Z,73.1
2022-08-26T05:11:14.730Z,73.2
2022-08-26T05:17:15.167Z,73.3
2022-08-26T05:23:15.018Z,73.1
2022-08-26T05:29:15.315Z,72.9
2022-08-26T05:35:15.850Z,72.9
2022-08-26T05:41:15.776Z,73.1
2022-08-26T05:47:15.387Z,72.8
2022-08-26T05:53:16.398Z,72.7
2022-08-26T05:59:14.936Z,72.8
2022-08-26T06:05:15.796Z,73
2022-08-26T06:11:18.458Z,72.6
2022-08-26T06:17:14.638Z,72.7
2022-08-26T06:23:14.533Z,72.5
2022-08-26T06:29:23.646Z,72.3
2022-08-26T06:35:15.518Z,71.9
2022-08-26T06:41:14.820Z,70.8
2022-08-26T06:47:15.233Z,71.1
2022-08-26T06:53:15.331Z,70.8
2022-08-26T06:59:14.517Z,70.5
2022-08-26T07:05:16.622Z,70.6
2022-08-26T07:11:14.913Z,70.4
2022-08-26T07:17:14.687Z,69.9
2022-08-26T07:23:14.560Z,69.9
2022-08-26T07:29:14.566Z,70.6
2022-08-26T07:35:17.418Z,69
2022-08-26T07:41:15.300Z,69.1
2022-08-26T07:47:24.843Z,69.3
2022-08-26T07:53:15.197Z,69.3
2022-08-26T07:59:16.935Z,68.9
2022-08-26T08:05:17.648Z,68.7
2022-08-26T08:11:15.345Z,69
2022-08-26T08:17:15.292Z,68.5
2022-08-26T08:23:14.593Z,68.7
2022-08-26T08:29:15.971Z,68.2
2022-08-26T08:35:18.370Z,68.2
2022-08-26T08:41:15.192Z,67.6
2022-08-26T08:47:14.633Z,67.9
2022-08-26T08:53:15.781Z,67.5
2022-08-26T08:59:14.504Z,67
2022-08-26T09:05:15.429Z,66.8
2022-08-26T09:11:16.025Z,67.2
2022-08-26T09:17:15.164Z,67.2
2022-08-26T09:23:14.344Z,66.9
2022-08-26T09:29:14.579Z,66.6
2022-08-26T09:35:14.761Z,66.9
2022-08-26T09:41:14.615Z,67
2022-08-26T09:47:15.245Z,66.7
2022-08-26T09:53:15.214Z,67.7
2022-08-26T09:59:14.627Z,67.6
2022-08-26T10:05:15.124Z,67.3
2022-08-26T10:11:15.065Z,66.9
2022-08-26T10:17:14.535Z,67.6
2022-08-26T10:23:15.424Z,67.5
2022-08-26T10:29:14.530Z,67.8
2022-08-26T10:35:14.781Z,67.4
2022-08-26T10:41:15.878Z,67.3
2022-08-26T10:47:14.505Z,67.3
2022-08-26T10:53:15.438Z,67
2022-08-26T10:59:14.608Z,66.7
2022-08-26T11:05:14.690Z,65.5
2022-08-26T11:11:14.682Z,66
2022-08-26T11:17:14.416Z,66
2022-08-26T11:23:14.265Z,66
2022-08-26T11:29:14.242Z,66
2022-08-26T11:35:14.720Z,66
2022-08-26T11:41:14.570Z,64.7
2022-08-26T11:47:14.591Z,63.8
2022-08-26T11:53:14.961Z,63.8
2022-08-26T11:59:14.679Z,62.2
2022-08-26T12:05:17.076Z,61
2022-08-26T12:11:14.719Z,61
2022-08-26T12:17:14.693Z,61
2022-08-26T12:23:14.679Z,60.6
2022-08-26T12:29:26.523Z,60.6
2022-08-26T12:35:14.730Z,60.7
2022-08-26T12:41:14.685Z,60.3
2022-08-26T12:47:14.721Z,60.7
2022-08-26T12:53:14.551Z,61.1
2022-08-26T12:59:16.405Z,60.8
2022-08-26T13:05:14.651Z,60.8
2022-08-26T13:11:15.053Z,60.8
2022-08-26T13:17:15.805Z,63.5
2022-08-26T13:23:15.783Z,63.6
2022-08-26T13:29:14.631Z,63.2
2022-08-26T13:35:14.923Z,63.2
2022-08-26T13:41:15.188Z,63
2022-08-26T13:47:15.106Z,63.5
2022-08-26T13:53:15.478Z,64.3
2022-08-26T13:59:14.835Z,64.4
2022-08-26T14:05:18.008Z,63.4
2022-08-26T14:11:15.521Z,63.7
2022-08-26T14:17:14.908Z,63.2
2022-08-26T14:23:14.825Z,62.8
2022-08-26T14:29:16.652Z,62.8
2022-08-26T14:35:18.463Z,62.3
2022-08-26T14:41:15.164Z,62.1
2022-08-26T14:47:14.911Z,61.5
2022-08-26T14:53:15.247Z,60.6
2022-08-26T14:59:14.677Z,61.1
2022-08-26T15:05:15.944Z,61.4
2022-08-26T15:11:14.667Z,62.3
2022-08-26T15:17:14.952Z,63
2022-08-26T15:23:14.865Z,63.1
2022-08-26T15:29:14.642Z,63.4
2022-08-26T15:35:16.012Z,62.7
2022-08-26T15:41:14.666Z,63
2022-08-26T15:47:15.738Z,61.7
2022-08-26T15:53:14.992Z,61.2
2022-08-26T15:59:15.029Z,61.3
2022-08-26T16:05:17.712Z,61.3
2022-08-26T16:11:15.508Z,61.6
2022-08-26T16:17:14.958Z,62.5
2022-08-26T16:23:14.759Z,62.5
2022-08-26T16:29:14.828Z,62.8
2022-08-26T16:35:19.702Z,63.1
2022-08-26T16:41:15.135Z,62.9
2022-08-26T16:47:14.743Z,63.8
2022-08-26T16:53:15.407Z,63.9
2022-08-26T16:59:14.587Z,63.7
2022-08-26T17:05:17.242Z,63.6
2022-08-26T17:11:15.532Z,64.7
2022-08-26T17:17:15.528Z,64.8
2022-08-26T17:23:14.652Z,64.3
2022-08-26T17:29:14.829Z,64
2022-08-26T17:35:19.014Z,63.8
2022-08-26T17:41:14.878Z,64.1
2022-08-26T17:47:15.349Z,64.2
2022-08-26T17:53:18.777Z,64.8
2022-08-26T17:59:14.899Z,64.7
2022-08-26T18:05:16.306Z,64.6
2022-08-26T18:11:15.410Z,64.3
2022-08-26T18:17:17.486Z,64.3
2022-08-26T18:23:15.176Z,64.5
2022-08-26T18:29:14.850Z,65.7
2022-08-26T18:35:17.724Z,66.1
2022-08-26T18:41:15.686Z,65.3
2022-08-26T18:47:14.802Z,65
2022-08-26T18:53:14.702Z,64.9
2022-08-26T18:59:14.945Z,64.4
2022-08-26T19:05:17.396Z,64.1
2022-08-26T19:11:14.778Z,64
2022-08-26T19:17:15.080Z,63.9
2022-08-26T19:23:30.420Z,64.3
2022-08-26T19:29:15.772Z,64.2
2022-08-26T19:35:18.295Z,64.6
2022-08-26T19:41:15.078Z,64.8
2022-08-26T19:47:14.664Z,65.1
2022-08-26T19:53:14.771Z,64.8
2022-08-26T19:59:14.838Z,64.9
2022-08-26T20:05:17.536Z,64.8
2022-08-26T20:11:15.117Z,64.8
2022-08-26T20:17:15.210Z,64.9
2022-08-26T20:23:14.862Z,65
2022-08-26T20:29:14.692Z,65.3
2022-08-26T20:35:15.981Z,66.5
2022-08-26T20:41:14.923Z,66.4
2022-08-26T20:47:14.712Z,66
2022-08-26T20:53:16.070Z,65.9
2022-08-26T20:59:14.748Z,66.6
2022-08-26T21:05:16.007Z,66.6
2022-08-26T21:11:14.711Z,67
2022-08-26T21:17:15.441Z,66.9
2022-08-26T21:23:14.706Z,67
2022-08-26T21:29:14.847Z,66.7
2022-08-26T21:35:16.558Z,66.5
2022-08-26T21:41:14.772Z,66.6
2022-08-26T21:47:14.922Z,66.6
2022-08-26T21:53:14.999Z,67.6
2022-08-26T21:59:15.423Z,68.3
2022-08-26T22:05:17.485Z,68.1
2022-08-26T22:11:15.570Z,68
2022-08-26T22:17:15.750Z,68.3
2022-08-26T22:23:14.938Z,68.6
2022-08-26T22:29:14.832Z,69.3
2022-08-26T22:35:28.289Z,70
2022-08-26T22:41:15.221Z,70
2022-08-26T22:47:14.931Z,71
2022-08-26T22:53:14.927Z,71.2
2022-08-26T22:59:14.931Z,71.1
2022-08-26T23:05:17.097Z,71.5
2022-08-26T23:11:15.234Z,71.2
2022-08-26T23:17:15.010Z,71
2022-08-26T23:23:15.587Z,71.2
2022-08-26T23:29:15.808Z,71.6
2022-08-26T23:35:22.470Z,72.1
2022-08-26T23:41:15.452Z,72.5
2022-08-26T23:47:16.270Z,72.7
2022-08-26T23:53:15.287Z,72.9
2022-08-26T23:59:15.540Z,72.7
